Time;durP1;ratioP1;P1;durP2;ratioP2;P2;SDS_P1;SDS_P2;PMS_P1;PMS_P2;Temp;Humidity;BMP_temperature;BMP_pressure;BME280_temperature;BME280_humidity;BME280_pressure;Samples;Min_cycle;Max_cycle;Signal;HPM_P1;HPM_P2
2021/07/13 00:01:41;;;;;;;11.63;10.50;;;;;;;17.14;77.32;100171.41;4901727;28;127179;-68
2021/07/13 00:04:08;;;;;;;11.38;10.38;;;;;;;17.27;76.83;100162.28;4902748;28;97952;-68
2021/07/13 00:06:34;;;;;;;10.88;9.88;;;;;;;17.27;77.09;100166.91;4901898;28;98131;-74
2021/07/13 00:09:00;;;;;;;10.75;9.85;;;;;;;17.28;76.74;100168.53;4901983;28;128054;-68
2021/07/13 00:11:26;;;;;;;11.38;10.48;;;;;;;17.14;77.10;100172.19;4901603;28;108232;-69
2021/07/13 00:13:52;;;;;;;11.15;10.18;;;;;;;17.03;77.75;100164.66;4902063;28;97925;-74
2021/07/13 00:16:18;;;;;;;10.70;9.80;;;;;;;17.18;77.23;100170.44;4901806;28;98329;-68
2021/07/13 00:18:44;;;;;;;10.07;9.18;;;;;;;17.33;76.63;100168.34;4901447;28;127015;-74
2021/07/13 00:21:10;;;;;;;11.55;9.60;;;;;;;17.31;76.50;100167.88;4901002;28;98623;-68
2021/07/13 00:23:39;;;;;;;10.23;9.27;;;;;;;17.29;76.65;100167.38;4901247;28;116570;-68
2021/07/13 00:26:06;;;;;;;9.95;9.07;;;;;;;17.39;76.56;100162.44;4902433;28;112645;-74
2021/07/13 00:28:33;;;;;;;10.20;9.23;;;;;;;17.09;77.16;100161.44;4898346;28;127401;-74
2021/07/13 00:30:59;;;;;;;10.98;10.05;;;;;;;17.05;77.45;100162.41;4902489;28;98219;-74
2021/07/13 00:33:25;;;;;;;11.02;10.13;;;;;;;16.98;77.55;100159.34;4900902;28;106305;-74
2021/07/13 00:35:51;;;;;;;10.30;9.20;;;;;;;17.01;77.46;100155.97;4882843;28;99937;-74
2021/07/13 00:38:17;;;;;;;10.32;9.43;;;;;;;16.96;77.90;100153.41;4901062;28;115497;-74
2021/07/13 00:40:43;;;;;;;10.77;9.77;;;;;;;16.88;78.09;100147.63;4902769;28;98007;-69
2021/07/13 00:43:10;;;;;;;10.95;9.95;;;;;;;16.79;78.49;100146.03;4901141;28;103947;-68
2021/07/13 00:45:36;;;;;;;10.82;9.82;;;;;;;16.82;78.26;100142.66;4901386;28;127906;-69
2021/07/13 00:48:02;;;;;;;10.27;9.27;;;;;;;16.87;78.08;100137.88;4882972;28;118415;-68
2021/07/13 00:50:28;;;;;;;9.82;8.93;;;;;;;16.90;77.99;100137.25;4901889;28;106839;-68
2021/07/13 00:52:57;;;;;;;9.82;8.93;;;;;;;16.71;78.75;100138.59;4900886;28;117806;-73
2021/07/13 00:55:24;;;;;;;10.10;9.13;;;;;;;16.83;78.29;100130.66;4899308;28;98751;-68
2021/07/13 00:57:50;;;;;;;10.27;9.38;;;;;;;16.84;78.12;100134.97;4901638;28;99087;-68
2021/07/13 01:00:18;;;;;;;10.70;9.70;;;;;;;16.79;77.99;100129.69;4900095;28;127341;-68
2021/07/13 01:02:47;;;;;;;10.48;9.48;;;;;;;16.84;78.39;100127.59;4851867;28;98130;-68
2021/07/13 01:05:20;;;;;;;10.35;9.35;;;;;;;16.68;78.25;100129.94;4883531;28;112725;-68
2021/07/13 01:08:01;;;;;;;10.75;9.70;;;;;;;16.78;78.04;100128.06;4883623;28;114124;-73
2021/07/13 01:11:11;;;;;;;10.20;9.20;;;;;;;16.80;77.75;100121.19;4900901;28;98484;-68
2021/07/13 01:14:01;;;;;;;10.30;9.27;;;;;;;16.91;77.04;100121.72;4901632;28;98295;-68
2021/07/13 01:16:55;;;;;;;10.40;9.48;;;;;;;16.49;78.17;100118.53;4899588;28;97911;-68
2021/07/13 01:19:37;;;;;;;9.93;8.98;;;;;;;16.35;78.66;100115.91;4900937;28;98519;-74
2021/07/13 01:22:39;;;;;;;10.07;9.23;;;;;;;16.35;78.77;100126.00;4901126;28;98120;-68
2021/07/13 01:25:14;;;;;;;9.30;8.60;;;;;;;16.42;78.61;100127.13;4881703;28;98094;-68
2021/07/13 01:27:48;;;;;;;10.25;9.32;;;;;;;16.61;78.04;100129.59;4883631;28;98234;-68
2021/07/13 01:30:45;;;;;;;10.00;9.10;;;;;;;16.62;77.68;100128.50;4900993;28;97798;-68
2021/07/13 01:33:18;;;;;;;10.82;9.77;;;;;;;16.67;77.40;100136.50;4900215;28;102209;-74
2021/07/13 01:36:07;;;;;;;10.38;9.48;;;;;;;16.55;77.35;100130.88;4884574;28;97953;-68
2021/07/13 01:38:40;;;;;;;11.38;9.40;;;;;;;16.36;78.21;100131.13;4898726;28;117248;-68
2021/07/13 01:41:10;;;;;;;10.45;9.45;;;;;;;16.36;77.91;100128.41;4900125;28;98402;-68
2021/07/13 01:43:37;;;;;;;9.93;9.00;;;;;;;16.34;78.44;100125.19;4900885;28;98690;-68
2021/07/13 01:46:04;;;;;;;10.70;9.50;;;;;;;16.00;79.08;100123.13;4900472;28;97858;-73
2021/07/13 01:48:30;;;;;;;10.02;9.07;;;;;;;16.32;78.54;100126.63;4901825;28;98761;-68
2021/07/13 01:50:57;;;;;;;10.02;9.02;;;;;;;16.30;78.27;100123.41;4870637;28;99594;-68
2021/07/13 01:53:23;;;;;;;9.88;8.98;;;;;;;16.45;77.99;100120.25;4904350;28;112925;-68
2021/07/13 01:55:49;;;;;;;9.50;8.70;;;;;;;16.32;78.50;100121.97;4902860;28;97963;-68
2021/07/13 01:58:18;;;;;;;10.38;9.38;;;;;;;16.44;77.62;100119.47;4884358;28;126451;-68
2021/07/13 02:00:44;;;;;;;9.65;8.77;;;;;;;16.40;77.95;100113.06;4904454;28;98470;-73
2021/07/13 02:03:10;;;;;;;9.88;9.05;;;;;;;16.42;77.62;100108.09;4885508;28;126338;-68
2021/07/13 02:05:36;;;;;;;9.43;8.52;;;;;;;16.18;78.56;100108.47;4902364;28;117861;-73
2021/07/13 02:08:04;;;;;;;9.73;8.65;;;;;;;16.15;78.48;100120.00;4885959;28;98445;-73
2021/07/13 02:10:30;;;;;;;9.73;8.70;;;;;;;16.13;79.02;100114.06;4903894;28;98745;-68
2021/07/13 02:12:56;;;;;;;9.55;8.65;;;;;;;16.03;78.84;100108.88;4902108;28;98148;-74
2021/07/13 02:15:23;;;;;;;9.80;8.90;;;;;;;16.33;78.53;100104.53;4885856;28;97925;-74
2021/07/13 02:17:52;;;;;;;9.13;8.32;;;;;;;16.26;78.31;100106.91;4903984;28;106012;-74
2021/07/13 02:20:21;;;;;;;9.77;8.88;;;;;;;16.22;78.62;100110.56;4903622;28;98067;-68
2021/07/13 02:22:48;;;;;;;10.38;9.38;;;;;;;16.01;78.65;100113.84;4885792;28;98136;-73
2021/07/13 02:25:14;;;;;;;9.18;8.30;;;;;;;15.88;79.45;100103.88;4904027;28;97790;-68
2021/07/13 02:27:54;;;;;;;9.52;8.52;;;;;;;15.89;79.80;100110.91;4886246;28;98523;-73
2021/07/13 02:30:20;;;;;;;8.93;8.13;;;;;;;15.90;79.67;100107.06;4901225;28;99725;-73
2021/07/13 02:33:02;;;;;;;9.02;8.23;;;;;;;16.00;79.19;100109.53;4885277;28;127213;-68
2021/07/13 02:35:43;;;;;;;9.35;8.38;;;;;;;15.87;79.19;100105.75;4904316;28;97678;-74
2021/07/13 02:38:09;;;;;;;9.52;8.30;;;;;;;15.62;80.06;100104.47;4885538;28;118616;-68
2021/07/13 02:40:35;;;;;;;8.82;7.93;;;;;;;15.87;79.32;100100.31;4901813;28;112424;-73
2021/07/13 02:43:01;;;;;;;9.15;8.35;;;;;;;15.82;79.25;100105.88;4885763;28;101405;-74
2021/07/13 02:45:27;;;;;;;9.65;8.55;;;;;;;15.84;79.09;100109.13;4902909;28;111003;-74
2021/07/13 02:47:55;;;;;;;9.45;8.65;;;;;;;15.67;79.24;100101.63;4885964;28;98117;-68
2021/07/13 02:50:21;;;;;;;9.55;8.65;;;;;;;15.65;79.61;100098.44;4901663;28;98509;-68
2021/07/13 02:52:47;;;;;;;10.13;9.25;;;;;;;15.57;80.05;100096.44;4901529;28;109121;-68
2021/07/13 02:55:19;;;;;;;9.48;8.70;;;;;;;15.69;79.88;100088.56;4885222;28;115694;-68
2021/07/13 02:57:45;;;;;;;9.77;8.87;;;;;;;15.88;79.17;100088.34;4901054;28;98972;-68
2021/07/13 03:00:13;;;;;;;9.23;8.35;;;;;;;15.88;79.13;100084.84;4884372;28;103439;-68
2021/07/13 03:02:41;;;;;;;10.27;8.65;;;;;;;15.74;79.63;100075.97;4902902;28;98417;-68
2021/07/13 03:05:10;;;;;;;9.77;8.70;;;;;;;15.84;79.32;100075.72;4869853;28;97892;-74
2021/07/13 03:07:36;;;;;;;9.60;8.80;;;;;;;15.99;78.77;100083.44;4901506;28;117416;-68
2021/07/13 03:10:03;;;;;;;8.68;7.97;;;;;;;16.16;78.06;100072.66;4882999;28;126790;-74
2021/07/13 03:12:29;;;;;;;8.75;8.02;;;;;;;16.13;77.89;100078.72;4902808;28;109420;-74
2021/07/13 03:14:55;;;;;;;9.18;8.23;;;;;;;16.04;78.03;100082.53;4883974;28;117284;-74
2021/07/13 03:17:21;;;;;;;9.73;8.82;;;;;;;15.85;78.61;100080.03;4885367;28;105796;-74
2021/07/13 03:19:47;;;;;;;9.85;9.02;;;;;;;15.79;79.11;100075.81;4900577;28;98747;-68
2021/07/13 03:22:38;;;;;;;9.13;8.23;;;;;;;15.85;79.18;100082.75;4884641;28;120780;-74
2021/07/13 03:25:05;;;;;;;9.38;8.27;;;;;;;15.92;78.54;100069.50;4874252;28;105068;-74
2021/07/13 03:27:32;;;;;;;9.40;8.43;;;;;;;15.96;78.34;100075.94;4885067;28;98378;-74
2021/07/13 03:29:58;;;;;;;10.15;8.75;;;;;;;15.64;79.86;100075.09;4900026;28;127929;-74
2021/07/13 03:32:24;;;;;;;9.23;8.23;;;;;;;16.04;78.53;100080.59;4879459;28;127821;-74
2021/07/13 03:34:52;;;;;;;9.40;8.50;;;;;;;16.04;78.14;100077.88;4901082;28;98152;-68
2021/07/13 03:37:18;;;;;;;8.60;7.90;;;;;;;16.00;78.69;100079.63;4901107;28;98729;-74
2021/07/13 03:39:44;;;;;;;8.75;7.93;;;;;;;16.15;78.24;100081.09;4883285;28;125665;-68
2021/07/13 03:42:11;;;;;;;10.20;8.02;;;;;;;16.03;78.89;100086.34;4883520;28;127572;-68
2021/07/13 03:44:37;;;;;;;8.82;8.02;;;;;;;15.92;79.08;100085.81;4901026;28;98200;-69
2021/07/13 03:47:03;;;;;;;8.85;7.47;;;;;;;15.99;78.74;100086.16;4902252;28;125996;-74
2021/07/13 03:49:29;;;;;;;9.65;8.65;;;;;;;15.91;79.11;100089.63;4901507;28;128668;-68
2021/07/13 03:51:55;;;;;;;9.23;8.38;;;;;;;15.95;79.14;100085.16;4901111;28;97939;-73
2021/07/13 03:54:22;;;;;;;9.38;8.38;;;;;;;15.71;79.83;100097.19;4901538;28;97977;-73
2021/07/13 03:56:49;;;;;;;8.35;7.65;;;;;;;16.08;79.06;100089.72;4899767;28;127135;-67
2021/07/13 03:59:16;;;;;;;8.38;7.60;;;;;;;16.18;79.22;100091.34;4884175;28;98835;-68
2021/07/13 04:01:42;;;;;;;8.70;7.32;;;;;;;16.17;78.76;100085.13;4900741;28;108071;-68
2021/07/13 04:04:08;;;;;;;8.40;7.60;;;;;;;16.09;79.04;100083.16;4903190;28;97699;-74
2021/07/13 04:06:34;;;;;;;9.10;8.30;;;;;;;16.32;78.51;100096.72;4899644;28;98975;-74
2021/07/13 04:09:01;;;;;;;8.05;7.35;;;;;;;16.30;78.80;100094.28;4901331;28;98479;-74
2021/07/13 04:11:27;;;;;;;7.88;7.25;;;;;;;16.40;78.27;100091.28;4902066;28;98853;-74
2021/07/13 04:13:53;;;;;;;8.07;7.38;;;;;;;16.60;77.89;100097.28;4900892;28;117145;-74
2021/07/13 04:16:19;;;;;;;8.07;6.97;;;;;;;16.60;78.34;100098.06;4901189;28;126644;-67
2021/07/13 04:18:45;;;;;;;7.97;7.28;;;;;;;16.75;77.74;100101.50;4898986;28;127932;-68
2021/07/13 04:21:11;;;;;;;7.85;7.15;;;;;;;16.79;77.86;100097.84;4900601;28;104686;-68
2021/07/13 04:23:37;;;;;;;7.28;6.50;;;;;;;16.85;77.80;100096.53;4901720;28;98012;-74
2021/07/13 04:26:06;;;;;;;6.90;6.30;;;;;;;16.98;77.27;100089.38;4900371;28;98451;-73
2021/07/13 04:28:33;;;;;;;7.68;6.50;;;;;;;17.14;77.10;100085.06;4883880;28;99437;-68
2021/07/13 04:31:00;;;;;;;6.95;6.25;;;;;;;17.28;76.55;100087.59;4868640;28;98435;-73
2021/07/13 04:33:26;;;;;;;7.03;6.32;;;;;;;17.35;76.39;100087.94;4901938;28;98996;-68
2021/07/13 04:35:52;;;;;;;7.78;5.70;;;;;;;17.48;75.60;100088.06;4901876;28;114909;-73
2021/07/13 04:38:19;;;;;;;5.82;5.18;;;;;;;17.49;75.75;100086.94;4899389;28;112082;-67
2021/07/13 04:40:45;;;;;;;6.50;5.88;;;;;;;17.45;75.42;100083.25;4901663;28;111818;-68
2021/07/13 04:43:11;;;;;;;7.47;5.70;;;;;;;17.65;75.08;100085.34;4882939;28;97788;-73
2021/07/13 04:45:37;;;;;;;5.72;4.90;;;;;;;17.80;74.93;100090.31;4901445;28;113658;-73
2021/07/13 04:48:04;;;;;;;6.28;5.65;;;;;;;17.98;74.70;100085.59;4881697;28;119629;-67
2021/07/13 04:50:30;;;;;;;6.72;5.45;;;;;;;18.05;74.60;100079.66;4899268;28;114288;-72
2021/07/13 04:52:56;;;;;;;13.50;6.15;;;;;;;18.12;74.34;100083.47;4901166;28;115966;-67
2021/07/13 04:55:22;;;;;;;6.15;5.65;;;;;;;18.29;73.96;100077.13;4902030;28;98142;-67
2021/07/13 04:57:48;;;;;;;5.65;5.05;;;;;;;18.23;73.37;100081.16;4883109;28;118434;-67
2021/07/13 05:00:15;;;;;;;6.35;4.80;;;;;;;18.42;73.06;100072.56;4900424;28;127997;-67
2021/07/13 05:02:41;;;;;;;6.35;5.32;;;;;;;18.52;73.02;100072.19;4900181;28;98245;-67
2021/07/13 05:05:10;;;;;;;6.07;5.13;;;;;;;18.62;72.87;100071.00;4900807;28;99026;-73
2021/07/13 05:07:41;;;;;;;6.45;4.50;;;;;;;18.64;72.91;100072.28;4891428;28;98687;-73
2021/07/13 05:10:09;;;;;;;5.07;4.57;;;;;;;18.82;72.19;100070.28;4901090;28;114940;-66
2021/07/13 05:12:36;;;;;;;5.03;4.63;;;;;;;18.98;72.02;100075.97;4883387;28;97709;-67
2021/07/13 05:15:03;;;;;;;4.63;4.22;;;;;;;19.10;71.57;100067.03;4896466;28;110696;-67
2021/07/13 05:17:29;;;;;;;4.47;4.07;;;;;;;19.11;71.19;100074.09;4901573;28;100468;-72
2021/07/13 05:19:56;;;;;;;4.72;4.30;;;;;;;19.48;70.07;100072.28;4900909;28;121229;-72
2021/07/13 05:22:22;;;;;;;8.15;4.20;;;;;;;19.55;69.88;100077.22;4901618;28;98732;-67
2021/07/13 05:24:48;;;;;;;6.68;3.92;;;;;;;19.76;69.37;100080.72;4901363;28;98445;-66
2021/07/13 05:27:17;;;;;;;4.70;3.70;;;;;;;19.77;69.64;100074.13;4900717;28;128086;-67
2021/07/13 05:29:43;;;;;;;3.97;3.55;;;;;;;20.03;68.28;100070.28;4901349;28;98037;-67
2021/07/13 05:32:09;;;;;;;3.67;3.38;;;;;;;19.99;67.60;100072.91;4901587;28;97789;-67
2021/07/13 05:34:35;;;;;;;4.72;3.53;;;;;;;20.11;67.89;100069.38;4900809;28;98426;-73
2021/07/13 05:37:02;;;;;;;4.22;3.38;;;;;;;20.25;67.28;100069.06;4900955;28;104457;-73
2021/07/13 05:39:28;;;;;;;3.20;2.90;;;;;;;20.62;66.28;100069.09;4898569;28;114019;-67
2021/07/13 05:41:55;;;;;;;5.90;3.38;;;;;;;20.92;65.90;100075.09;4901538;28;97789;-73
2021/07/13 05:44:21;;;;;;;3.45;3.10;;;;;;;20.95;65.88;100066.19;4882506;28;98586;-67
2021/07/13 05:46:47;;;;;;;3.10;2.80;;;;;;;20.97;64.92;100063.88;4899751;28;128134;-67
2021/07/13 05:49:13;;;;;;;3.15;2.80;;;;;;;21.50;63.41;100062.69;4899515;28;125494;-67
2021/07/13 05:51:39;;;;;;;4.18;2.60;;;;;;;21.50;63.77;100062.69;4900079;28;115219;-73
2021/07/13 05:54:05;;;;;;;4.20;2.60;;;;;;;21.91;63.01;100065.31;4899757;28;128203;-67
2021/07/13 05:56:31;;;;;;;2.72;2.50;;;;;;;22.26;62.01;100062.69;4900131;28;128055;-67
2021/07/13 05:58:57;;;;;;;2.80;2.30;;;;;;;23.21;58.53;100057.75;4900828;28;101105;-67
2021/07/13 06:01:24;;;;;;;3.42;2.33;;;;;;;25.75;51.72;100058.06;4901154;28;98404;-67
2021/07/13 06:03:50;;;;;;;2.67;1.98;;;;;;;26.92;48.17;100072.00;4900469;28;99128;-73
2021/07/13 06:06:16;;;;;;;4.32;2.20;;;;;;;27.34;47.64;100071.38;4901197;28;98891;-74
2021/07/13 06:08:42;;;;;;;1.92;1.60;;;;;;;28.75;43.50;100059.22;4899032;28;128168;-74
2021/07/13 06:11:08;;;;;;;2.30;1.58;;;;;;;28.71;43.13;100064.78;4900427;28;117721;-74
2021/07/13 06:13:34;;;;;;;3.03;1.80;;;;;;;28.44;43.94;100058.88;4897368;28;127258;-68
2021/07/13 06:16:00;;;;;;;2.78;1.80;;;;;;;29.74;41.36;100058.00;4899136;28;100087;-68
2021/07/13 06:18:26;;;;;;;1.70;1.52;;;;;;;29.66;41.04;100052.91;4900426;28;102676;-68
2021/07/13 06:20:52;;;;;;;2.55;1.70;;;;;;;30.48;39.22;100057.81;4901849;28;118122;-68
2021/07/13 06:23:18;;;;;;;2.53;1.40;;;;;;;30.56;39.18;100051.75;4881569;28;128231;-68
2021/07/13 06:25:44;;;;;;;2.35;1.30;;;;;;;31.50;37.60;100048.66;4899986;28;127366;-67
2021/07/13 06:28:11;;;;;;;2.47;1.23;;;;;;;32.07;36.11;100042.22;4900299;28;97975;-73
2021/07/13 06:30:37;;;;;;;2.47;1.30;;;;;;;31.68;36.39;100046.41;4901080;28;114826;-68
2021/07/13 06:33:03;;;;;;;2.25;1.10;;;;;;;31.81;37.12;100048.59;4883404;28;98248;-73
2021/07/13 06:35:30;;;;;;;1.50;0.80;;;;;;;31.83;36.11;100048.94;4901047;28;123238;-68
2021/07/13 06:37:57;;;;;;;2.92;1.08;;;;;;;32.68;34.93;100041.91;4904216;28;99268;-74
2021/07/13 06:40:23;;;;;;;1.98;1.10;;;;;;;32.43;34.98;100047.19;4904014;28;98243;-67
2021/07/13 06:42:49;;;;;;;1.27;0.80;;;;;;;32.79;34.74;100040.94;4902975;28;99446;-73
2021/07/13 06:45:15;;;;;;;2.75;0.90;;;;;;;32.18;35.26;100037.22;4901366;28;127640;-73
2021/07/13 06:47:42;;;;;;;2.03;0.70;;;;;;;32.14;35.40;100036.50;4901565;28;98804;-73
2021/07/13 06:50:08;;;;;;;1.75;0.77;;;;;;;32.02;35.79;100026.75;4902778;28;113786;-67
2021/07/13 06:52:35;;;;;;;2.80;0.65;;;;;;;31.02;37.36;100027.41;4903409;28;98277;-67
2021/07/13 06:55:03;;;;;;;1.40;0.50;;;;;;;30.00;40.12;100023.28;4903051;28;98785;-73
2021/07/13 06:57:29;;;;;;;1.50;0.80;;;;;;;30.38;39.31;100015.03;4885642;28;99591;-68
2021/07/13 06:59:59;;;;;;;2.22;0.70;;;;;;;30.18;39.49;100016.78;4903344;28;97716;-72
2021/07/13 07:02:28;;;;;;;2.03;0.60;;;;;;;30.28;39.36;100016.69;4902168;28;97953;-73
2021/07/13 07:04:54;;;;;;;1.58;0.60;;;;;;;30.54;38.35;100009.69;4886031;28;98372;-67
2021/07/13 07:07:20;;;;;;;1.65;0.77;;;;;;;30.70;38.37;99999.97;4902800;28;108683;-72
2021/07/13 07:09:46;;;;;;;3.30;0.82;;;;;;;30.77;38.29;100011.84;4902310;28;117978;-73
2021/07/13 07:12:12;;;;;;;1.65;0.70;;;;;;;30.78;37.21;100013.41;4904018;28;98416;-73
2021/07/13 07:14:38;;;;;;;9.27;5.85;;;;;;;31.24;36.79;100014.00;4884112;28;117094;-72
2021/07/13 07:17:04;;;;;;;20.52;18.88;;;;;;;31.38;37.37;100013.81;4884751;28;128217;-67
2021/07/13 07:19:30;;;;;;;6.63;6.00;;;;;;;31.60;36.16;100013.50;4903297;28;110406;-67
2021/07/13 07:21:56;;;;;;;2.25;1.67;;;;;;;31.35;36.73;100013.88;4900821;28;128566;-67
2021/07/13 07:24:22;;;;;;;2.33;1.55;;;;;;;31.74;36.42;100005.72;4884617;28;100410;-68
2021/07/13 07:26:48;;;;;;;3.58;2.53;;;;;;;31.52;36.66;100007.28;4902065;28;125335;-67
2021/07/13 07:29:14;;;;;;;2.45;1.08;;;;;;;31.89;35.22;100005.50;4884250;28;118328;-67
2021/07/13 07:31:40;;;;;;;2.30;0.90;;;;;;;31.85;36.41;100002.00;4884443;28;128720;-72
2021/07/13 07:34:06;;;;;;;1.52;0.90;;;;;;;31.09;38.71;100010.63;4865583;28;100631;-72
2021/07/13 07:36:33;;;;;;;20.48;18.48;;;;;;;32.12;35.71;100004.72;4884878;28;126766;-67
2021/07/13 07:38:59;;;;;;;5.53;4.97;;;;;;;30.91;37.86;100007.28;4899782;28;117543;-67
2021/07/13 07:41:25;;;;;;;2.92;1.40;;;;;;;30.07;39.17;100003.00;4902345;28;118379;-67
2021/07/13 07:43:51;;;;;;;1.92;1.17;;;;;;;29.78;39.85;99999.66;4901762;28;99201;-72
2021/07/13 07:46:17;;;;;;;1.83;0.90;;;;;;;29.65;40.49;99985.47;4903448;28;98153;-67
2021/07/13 07:48:43;;;;;;;1.50;1.13;;;;;;;30.66;39.23;99983.34;4902706;28;105773;-71
2021/07/13 07:51:09;;;;;;;1.77;1.20;;;;;;;31.71;37.98;99987.06;4902074;28;126561;-67
2021/07/13 07:53:35;;;;;;;2.53;1.10;;;;;;;30.98;39.20;99991.28;4901659;28;128464;-67
2021/07/13 07:56:02;;;;;;;2.15;1.20;;;;;;;32.65;35.50;99992.56;4903160;28;98754;-67
2021/07/13 07:58:28;;;;;;;4.50;1.30;;;;;;;33.64;33.90;99988.84;4902398;28;100368;-67
2021/07/13 08:00:54;;;;;;;3.08;1.13;;;;;;;32.53;36.47;99984.84;4901092;28;127669;-68
2021/07/13 08:03:20;;;;;;;2.88;1.17;;;;;;;32.95;35.17;99979.63;4901548;28;98491;-67
2021/07/13 08:05:47;;;;;;;2.55;1.02;;;;;;;31.13;37.51;99991.13;4899864;28;128303;-71
2021/07/13 08:08:13;;;;;;;1.52;1.13;;;;;;;29.57;41.15;99984.75;4902041;28;103969;-67
2021/07/13 08:10:39;;;;;;;1.52;1.02;;;;;;;29.34;41.57;99974.16;4899771;28;128947;-71
2021/07/13 08:13:05;;;;;;;1.63;1.40;;;;;;;30.00;40.01;99975.28;4900031;28;128439;-71
2021/07/13 08:15:31;;;;;;;3.03;1.48;;;;;;;31.50;38.23;99976.28;4901885;28;98286;-67
2021/07/13 08:17:58;;;;;;;1.90;1.30;;;;;;;33.06;35.78;99980.19;4902596;28;110998;-67
2021/07/13 08:20:24;;;;;;;2.63;1.40;;;;;;;32.98;35.90;99978.78;4902109;28;98258;-72
2021/07/13 08:22:50;;;;;;;2.15;1.38;;;;;;;34.60;33.05;99982.75;4902158;28;127235;-72
2021/07/13 08:25:18;;;;;;;2.08;1.40;;;;;;;35.58;31.19;99976.59;4902074;28;98037;-72
2021/07/13 08:27:45;;;;;;;2.67;1.27;;;;;;;35.30;31.59;99967.09;4901257;28;98108;-67
2021/07/13 08:30:12;;;;;;;3.33;1.30;;;;;;;35.12;32.39;99955.66;4901836;28;98874;-73
2021/07/13 08:32:38;;;;;;;2.15;1.40;;;;;;;35.24;31.59;99959.69;4900753;28;98694;-72
2021/07/13 08:35:06;;;;;;;2.88;2.58;;;;;;;36.95;29.46;99955.78;4901769;28;113278;-72
2021/07/13 08:37:33;;;;;;;2.90;2.45;;;;;;;36.57;28.90;99951.94;4902238;28;98063;-73
2021/07/13 08:40:00;;;;;;;2.25;1.40;;;;;;;36.41;29.18;99943.72;4900587;28;98564;-73
2021/07/13 08:42:26;;;;;;;2.72;1.48;;;;;;;36.95;28.69;99928.50;4901963;28;98261;-72
2021/07/13 08:44:52;;;;;;;1.65;1.40;;;;;;;35.98;30.07;99930.47;4899411;28;106368;-73
2021/07/13 08:47:18;;;;;;;1.52;1.42;;;;;;;36.88;29.44;99925.16;4901254;28;118283;-73
2021/07/13 08:49:45;;;;;;;1.77;1.38;;;;;;;37.17;28.83;99927.63;4900702;28;128287;-72
2021/07/13 08:52:11;;;;;;;1.55;1.30;;;;;;;37.06;27.99;99934.47;4884571;28;98542;-72
2021/07/13 08:54:38;;;;;;;2.33;1.60;;;;;;;38.77;25.75;99919.88;4900261;28;101216;-68
2021/07/13 08:57:04;;;;;;;2.00;1.60;;;;;;;39.06;25.52;99922.13;4899602;28;105953;-72
2021/07/13 08:59:30;;;;;;;2.65;1.55;;;;;;;39.37;24.52;99915.44;4901280;28;98521;-69
2021/07/13 09:01:57;;;;;;;2.60;1.33;;;;;;;39.30;25.33;99918.59;4901432;28;98984;-68
2021/07/13 09:04:33;;;;;;;1.70;1.27;;;;;;;37.81;26.56;99903.28;4901593;28;104129;-68
2021/07/13 09:06:59;;;;;;;2.47;1.40;;;;;;;38.53;25.50;99905.75;4887880;28;97799;-72
2021/07/13 09:09:32;;;;;;;2.72;1.40;;;;;;;38.76;25.38;99901.44;4901482;28;98357;-68
2021/07/13 09:12:22;;;;;;;1.63;1.20;;;;;;;39.61;24.08;99902.09;4899980;28;98277;-68
2021/07/13 09:14:59;;;;;;;2.58;1.20;;;;;;;39.00;24.17;99902.31;4900154;28;98464;-71
2021/07/13 09:17:43;;;;;;;3.70;1.25;;;;;;;37.58;26.51;99890.59;4902247;28;97790;-71
2021/07/13 09:20:31;;;;;;;1.60;1.23;;;;;;;38.10;25.59;99893.59;4900804;28;99377;-71
2021/07/13 09:23:04;;;;;;;1.20;1.08;;;;;;;37.81;26.28;99896.88;4900557;28;98755;-67
2021/07/13 09:25:34;;;;;;;1.15;1.00;;;;;;;36.71;27.76;99880.47;4899331;28;97841;-68
2021/07/13 09:28:21;;;;;;;3.30;1.30;;;;;;;37.42;26.57;99882.47;4899932;28;98545;-71
2021/07/13 09:30:54;;;;;;;1.80;1.30;;;;;;;37.13;27.08;99884.88;4896370;28;98177;-67
2021/07/13 09:33:32;;;;;;;3.80;1.30;;;;;;;36.69;27.22;99870.94;4897357;28;99319;-72
2021/07/13 09:36:16;;;;;;;1.73;1.30;;;;;;;37.41;27.00;99882.91;4899311;28;98603;-67
2021/07/13 09:38:54;;;;;;;2.67;1.20;;;;;;;37.81;25.43;99889.22;4901655;28;98405;-67
2021/07/13 09:41:33;;;;;;;2.13;1.20;;;;;;;38.26;25.32;99878.41;4900891;28;99490;-71
2021/07/13 09:44:04;;;;;;;1.55;1.45;;;;;;;38.17;24.97;99881.25;4900289;28;98796;-71
2021/07/13 09:46:33;;;;;;;;;;;;;;;39.62;23.21;99888.81;4901446;28;98721;-70
2021/07/13 09:49:08;;;;;;;2.03;1.08;;;;;;;38.71;23.16;99880.34;4901312;28;98227;-71
2021/07/13 09:51:34;;;;;;;2.70;1.30;;;;;;;38.12;25.71;99868.59;4900898;28;98964;-68
2021/07/13 09:54:00;;;;;;;1.90;1.15;;;;;;;37.95;24.78;99870.97;4899808;28;117511;-67
2021/07/13 09:56:40;;;;;;;1.38;1.15;;;;;;;35.52;27.50;99857.16;4900385;28;98779;-71
2021/07/13 09:59:06;;;;;;;2.20;1.05;;;;;;;35.33;28.81;99865.38;4900458;28;99661;-67
2021/07/13 10:01:33;;;;;;;2.20;1.13;;;;;;;33.35;31.42;99859.47;4899362;28;129387;-67
2021/07/13 10:04:01;;;;;;;1.42;1.30;;;;;;;32.31;34.76;99858.25;4898758;28;99490;-67
2021/07/13 10:06:29;;;;;;;1.63;1.33;;;;;;;32.55;34.52;99853.38;4897878;28;127343;-67
2021/07/13 10:08:58;;;;;;;1.67;1.40;;;;;;;31.96;34.42;99849.38;4903583;28;98235;-67
2021/07/13 10:11:27;;;;;;;1.95;1.23;;;;;;;31.87;34.90;99861.06;4902272;28;98459;-70
2021/07/13 10:13:54;;;;;;;1.98;1.33;;;;;;;31.80;33.61;99852.06;4881772;28;115061;-70
2021/07/13 10:16:20;;;;;;;2.33;1.30;;;;;;;32.06;34.26;99865.06;4875080;28;111219;-67
2021/07/13 10:18:46;;;;;;;3.17;1.73;;;;;;;31.99;34.36;99860.47;4885435;28;118016;-67
2021/07/13 10:21:12;;;;;;;2.10;1.48;;;;;;;32.84;33.56;99864.66;4902281;28;127814;-70
2021/07/13 10:23:39;;;;;;;2.25;1.67;;;;;;;32.50;35.21;99866.59;4869338;28;98739;-70
2021/07/13 10:26:07;;;;;;;2.15;1.70;;;;;;;34.21;31.53;99874.78;4886405;28;97827;-71
2021/07/13 10:28:33;;;;;;;4.13;1.95;;;;;;;34.54;31.64;99869.84;4902286;28;97939;-67
2021/07/13 10:31:00;;;;;;;3.13;2.25;;;;;;;35.46;29.79;99870.16;4870477;28;99937;-71
2021/07/13 10:33:39;;;;;;;2.53;1.90;;;;;;;34.28;30.31;99863.41;4869122;28;110363;-67
2021/07/13 10:36:31;;;;;;;2.47;2.10;;;;;;;36.22;28.56;99871.91;4903270;28;98093;-71
2021/07/13 10:39:29;;;;;;;2.75;2.00;;;;;;;35.91;28.42;99872.59;4904013;28;97843;-67
2021/07/13 10:41:57;;;;;;;3.05;2.20;;;;;;;36.67;26.97;99873.44;4903783;28;99261;-71
2021/07/13 10:44:41;;;;;;;2.92;2.10;;;;;;;36.63;26.93;99879.19;4903675;28;98538;-67
2021/07/13 10:47:20;;;;;;;3.30;1.95;;;;;;;35.10;28.98;99871.34;4904268;28;97771;-67
2021/07/13 10:49:46;;;;;;;2.33;2.05;;;;;;;34.68;29.13;99866.63;4902845;28;98480;-67
2021/07/13 10:52:51;;;;;;;2.10;1.85;;;;;;;35.74;27.80;99857.22;4901157;28;127847;-69
2021/07/13 10:55:33;;;;;;;1.85;1.75;;;;;;;34.19;29.70;99852.88;4903377;28;98386;-68
2021/07/13 10:58:12;;;;;;;2.38;2.17;;;;;;;34.44;30.00;99848.56;4902015;28;98296;-67
2021/07/13 11:01:00;;;;;;;3.45;2.20;;;;;;;35.67;27.76;99849.81;4902749;28;99590;-72
2021/07/13 11:03:32;;;;;;;2.92;2.10;;;;;;;35.16;28.65;99855.53;4901153;28;98315;-68
2021/07/13 11:06:18;;;;;;;3.35;2.35;;;;;;;34.25;29.33;99853.09;4903437;28;98196;-67
2021/07/13 11:08:44;;;;;;;3.10;2.00;;;;;;;35.98;27.89;99840.75;4887263;28;98267;-67
2021/07/13 11:11:22;;;;;;;3.05;2.08;;;;;;;36.10;28.25;99851.13;4903439;28;97860;-67
2021/07/13 11:14:05;;;;;;;3.30;2.60;;;;;;;35.98;28.44;99840.75;4902741;28;98239;-68
2021/07/13 11:16:38;;;;;;;2.50;2.30;;;;;;;35.56;28.34;99841.78;4902844;28;99249;-72
2021/07/13 11:19:11;;;;;;;2.50;2.30;;;;;;;34.78;29.87;99836.75;4883203;28;97809;-71
2021/07/13 11:21:44;;;;;;;4.40;2.30;;;;;;;35.09;29.61;99839.75;4885640;28;97881;-68
2021/07/13 11:24:30;;;;;;;2.72;2.30;;;;;;;34.78;29.82;99833.13;4902252;28;98597;-71
2021/07/13 11:26:57;;;;;;;2.55;2.33;;;;;;;36.05;29.23;99823.69;4901545;28;98629;-71
2021/07/13 11:29:28;;;;;;;2.85;2.30;;;;;;;34.59;29.98;99821.75;4900237;28;98690;-67
2021/07/13 11:32:02;;;;;;;;;;;;;;;35.74;28.97;99820.78;4903665;28;97809;-68
2021/07/13 11:34:38;;;;;;;2.90;2.30;;;;;;;36.11;27.84;99819.03;4884685;28;98240;-68